sensor_id;sensor_type;location;lat;lon;timestamp;temperature;humidity
14614;DHT22;7393;51.446;6.800;2023-06-19T00:01:07;24.70;1.00
14614;DHT22;7393;51.446;6.800;2023-06-19T00:03:34;24.60;1.00
14614;DHT22;7393;51.446;6.800;2023-06-19T00:06:01;24.60;1.00
14614;DHT22;7393;51.446;6.800;2023-06-19T00:08:27;24.60;1.00
14614;DHT22;7393;51.446;6.800;2023-06-19T00:10:54;24.50;1.00
14614;DHT22;7393;51.446;6.800;2023-06-19T00:13:22;24.50;1.00
14614;DHT22;7393;51.446;6.800;2023-06-19T00:15:49;24.50;1.00
14614;DHT22;7393;51.446;6.800;2023-06-19T00:18:16;24.50;1.00
14614;DHT22;7393;51.446;6.800;2023-06-19T00:20:45;24.40;1.00
14614;DHT22;7393;51.446;6.800;2023-06-19T00:23:12;24.40;1.00
14614;DHT22;7393;51.446;6.800;2023-06-19T00:25:40;24.30;1.00
14614;DHT22;7393;51.446;6.800;2023-06-19T00:28:07;24.30;1.00
14614;DHT22;7393;51.446;6.800;2023-06-19T00:30:40;24.20;1.00
14614;DHT22;7393;51.446;6.800;2023-06-19T00:33:08;24.20;1.00
14614;DHT22;7393;51.446;6.800;2023-06-19T00:35:35;24.20;1.00
14614;DHT22;7393;51.446;6.800;2023-06-19T00:38:02;24.10;1.00
14614;DHT22;7393;51.446;6.800;2023-06-19T00:40:30;24.10;1.00
14614;DHT22;7393;51.446;6.800;2023-06-19T00:42:57;24.00;1.00
14614;DHT22;7393;51.446;6.800;2023-06-19T00:45:25;24.00;4.40
14614;DHT22;7393;51.446;6.800;2023-06-19T00:47:54;24.00;8.40
14614;DHT22;7393;51.446;6.800;2023-06-19T00:50:21;23.90;10.40
14614;DHT22;7393;51.446;6.800;2023-06-19T00:52:48;23.80;12.80
14614;DHT22;7393;51.446;6.800;2023-06-19T00:55:16;23.80;13.10
14614;DHT22;7393;51.446;6.800;2023-06-19T00:57:43;23.80;12.70
14614;DHT22;7393;51.446;6.800;2023-06-19T01:00:12;23.80;13.80
14614;DHT22;7393;51.446;6.800;2023-06-19T01:02:39;23.70;13.20
14614;DHT22;7393;51.446;6.800;2023-06-19T01:05:07;23.70;15.50
14614;DHT22;7393;51.446;6.800;2023-06-19T01:07:43;23.70;16.90
14614;DHT22;7393;51.446;6.800;2023-06-19T01:10:15;23.70;15.10
14614;DHT22;7393;51.446;6.800;2023-06-19T01:13:00;23.70;16.20
14614;DHT22;7393;51.446;6.800;2023-06-19T01:15:28;23.60;16.70
14614;DHT22;7393;51.446;6.800;2023-06-19T01:17:57;23.50;17.60
14614;DHT22;7393;51.446;6.800;2023-06-19T01:20:27;23.50;20.80
14614;DHT22;7393;51.446;6.800;2023-06-19T01:22:56;23.50;22.70
14614;DHT22;7393;51.446;6.800;2023-06-19T01:25:23;23.40;23.70
14614;DHT22;7393;51.446;6.800;2023-06-19T01:27:50;23.40;24.40
14614;DHT22;7393;51.446;6.800;2023-06-19T01:30:18;23.40;25.10
14614;DHT22;7393;51.446;6.800;2023-06-19T01:32:50;23.30;25.20
14614;DHT22;7393;51.446;6.800;2023-06-19T01:35:23;23.30;28.30
14614;DHT22;7393;51.446;6.800;2023-06-19T01:37:52;23.30;29.30
14614;DHT22;7393;51.446;6.800;2023-06-19T01:40:20;23.30;29.70
14614;DHT22;7393;51.446;6.800;2023-06-19T01:42:52;23.20;33.30
14614;DHT22;7393;51.446;6.800;2023-06-19T01:45:19;23.20;35.80
14614;DHT22;7393;51.446;6.800;2023-06-19T01:47:46;23.20;37.10
14614;DHT22;7393;51.446;6.800;2023-06-19T01:50:14;23.20;43.60
14614;DHT22;7393;51.446;6.800;2023-06-19T01:52:41;23.20;59.70
14614;DHT22;7393;51.446;6.800;2023-06-19T01:55:08;23.20;75.60
14614;DHT22;7393;51.446;6.800;2023-06-19T01:57:37;23.10;90.10
14614;DHT22;7393;51.446;6.800;2023-06-19T02:00:05;23.10;95.00
14614;DHT22;7393;51.446;6.800;2023-06-19T02:02:33;23.10;97.60
14614;DHT22;7393;51.446;6.800;2023-06-19T02:05:00;23.00;99.90
14614;DHT22;7393;51.446;6.800;2023-06-19T02:07:26;23.00;99.90
14614;DHT22;7393;51.446;6.800;2023-06-19T02:09:53;22.90;99.90
14614;DHT22;7393;51.446;6.800;2023-06-19T02:12:20;22.90;99.90
14614;DHT22;7393;51.446;6.800;2023-06-19T02:14:48;22.80;99.90
14614;DHT22;7393;51.446;6.800;2023-06-19T02:17:15;22.80;99.90
14614;DHT22;7393;51.446;6.800;2023-06-19T02:19:42;22.80;99.90
14614;DHT22;7393;51.446;6.800;2023-06-19T02:22:09;22.80;99.90
14614;DHT22;7393;51.446;6.800;2023-06-19T02:24:36;22.80;99.90
14614;DHT22;7393;51.446;6.800;2023-06-19T02:27:05;22.80;99.90
14614;DHT22;7393;51.446;6.800;2023-06-19T02:29:32;22.70;99.90
14614;DHT22;7393;51.446;6.800;2023-06-19T02:32:01;22.70;99.90
14614;DHT22;7393;51.446;6.800;2023-06-19T02:34:28;22.70;99.90
14614;DHT22;7393;51.446;6.800;2023-06-19T02:36:55;22.70;99.90
14614;DHT22;7393;51.446;6.800;2023-06-19T02:39:21;22.70;99.90
14614;DHT22;7393;51.446;6.800;2023-06-19T02:41:48;22.60;99.90
14614;DHT22;7393;51.446;6.800;2023-06-19T02:44:15;22.70;99.90
14614;DHT22;7393;51.446;6.800;2023-06-19T02:46:42;22.70;28.80
14614;DHT22;7393;51.446;6.800;2023-06-19T02:49:10;22.60;44.00
14614;DHT22;7393;51.446;6.800;2023-06-19T02:51:37;22.60;50.80
14614;DHT22;7393;51.446;6.800;2023-06-19T02:54:04;22.60;91.00
14614;DHT22;7393;51.446;6.800;2023-06-19T02:56:32;22.60;19.80
14614;DHT22;7393;51.446;6.800;2023-06-19T02:58:58;22.70;8.40
14614;DHT22;7393;51.446;6.800;2023-06-19T03:01:25;22.70;10.70
14614;DHT22;7393;51.446;6.800;2023-06-19T03:03:52;22.70;1.00
14614;DHT22;7393;51.446;6.800;2023-06-19T03:06:21;22.70;1.00
14614;DHT22;7393;51.446;6.800;2023-06-19T03:08:49;22.70;1.00
14614;DHT22;7393;51.446;6.800;2023-06-19T03:11:16;22.70;1.00
14614;DHT22;7393;51.446;6.800;2023-06-19T03:13:47;22.70;1.00
14614;DHT22;7393;51.446;6.800;2023-06-19T03:16:14;22.80;1.00
14614;DHT22;7393;51.446;6.800;2023-06-19T03:18:41;22.80;1.00
14614;DHT22;7393;51.446;6.800;2023-06-19T03:21:10;22.80;1.00
14614;DHT22;7393;51.446;6.800;2023-06-19T03:23:38;22.90;1.00
14614;DHT22;7393;51.446;6.800;2023-06-19T03:26:06;22.90;1.00
14614;DHT22;7393;51.446;6.800;2023-06-19T03:28:33;22.80;1.00
14614;DHT22;7393;51.446;6.800;2023-06-19T03:31:00;22.80;1.00
14614;DHT22;7393;51.446;6.800;2023-06-19T03:33:27;22.90;1.00
14614;DHT22;7393;51.446;6.800;2023-06-19T03:35:54;22.90;1.00
14614;DHT22;7393;51.446;6.800;2023-06-19T03:38:21;22.90;1.00
14614;DHT22;7393;51.446;6.800;2023-06-19T03:40:49;22.80;1.00
14614;DHT22;7393;51.446;6.800;2023-06-19T03:43:16;22.80;1.00
14614;DHT22;7393;51.446;6.800;2023-06-19T03:45:43;22.80;1.00
14614;DHT22;7393;51.446;6.800;2023-06-19T03:48:10;22.80;1.00
14614;DHT22;7393;51.446;6.800;2023-06-19T03:50:36;22.80;1.00
14614;DHT22;7393;51.446;6.800;2023-06-19T03:53:03;22.70;1.00
14614;DHT22;7393;51.446;6.800;2023-06-19T03:55:30;22.70;1.00
14614;DHT22;7393;51.446;6.800;2023-06-19T03:57:58;22.60;1.00
14614;DHT22;7393;51.446;6.800;2023-06-19T04:00:25;22.50;1.00
14614;DHT22;7393;51.446;6.800;2023-06-19T04:02:52;22.50;1.00
14614;DHT22;7393;51.446;6.800;2023-06-19T04:05:19;22.40;1.00
14614;DHT22;7393;51.446;6.800;2023-06-19T04:07:46;22.40;1.00
14614;DHT22;7393;51.446;6.800;2023-06-19T04:10:13;22.40;1.00
14614;DHT22;7393;51.446;6.800;2023-06-19T04:12:40;22.40;1.00
14614;DHT22;7393;51.446;6.800;2023-06-19T04:15:09;22.30;1.00
14614;DHT22;7393;51.446;6.800;2023-06-19T04:17:36;22.30;1.00
14614;DHT22;7393;51.446;6.800;2023-06-19T04:20:03;22.30;1.00
14614;DHT22;7393;51.446;6.800;2023-06-19T04:22:36;22.30;1.00
14614;DHT22;7393;51.446;6.800;2023-06-19T04:25:03;22.30;1.00
14614;DHT22;7393;51.446;6.800;2023-06-19T04:27:30;22.20;1.00
14614;DHT22;7393;51.446;6.800;2023-06-19T04:29:57;22.20;1.00
14614;DHT22;7393;51.446;6.800;2023-06-19T04:32:25;22.20;1.00
14614;DHT22;7393;51.446;6.800;2023-06-19T04:34:52;22.10;1.00
14614;DHT22;7393;51.446;6.800;2023-06-19T04:37:19;22.10;1.00
14614;DHT22;7393;51.446;6.800;2023-06-19T04:39:46;22.10;1.00
14614;DHT22;7393;51.446;6.800;2023-06-19T04:42:13;22.10;1.00
14614;DHT22;7393;51.446;6.800;2023-06-19T04:44:44;22.10;1.00
14614;DHT22;7393;51.446;6.800;2023-06-19T04:47:11;22.00;1.00
14614;DHT22;7393;51.446;6.800;2023-06-19T04:49:39;22.00;1.00
14614;DHT22;7393;51.446;6.800;2023-06-19T04:52:07;22.00;1.00
14614;DHT22;7393;51.446;6.800;2023-06-19T04:54:34;22.00;1.00
14614;DHT22;7393;51.446;6.800;2023-06-19T04:57:00;22.10;1.00
14614;DHT22;7393;51.446;6.800;2023-06-19T04:59:28;22.10;1.00
14614;DHT22;7393;51.446;6.800;2023-06-19T05:01:56;22.10;1.00
14614;DHT22;7393;51.446;6.800;2023-06-19T05:04:23;22.20;1.00
14614;DHT22;7393;51.446;6.800;2023-06-19T05:06:51;22.20;1.00
14614;DHT22;7393;51.446;6.800;2023-06-19T05:09:18;22.10;2.40
14614;DHT22;7393;51.446;6.800;2023-06-19T05:11:45;22.20;1.20
14614;DHT22;7393;51.446;6.800;2023-06-19T05:14:12;22.20;1.70
14614;DHT22;7393;51.446;6.800;2023-06-19T05:16:40;22.20;12.30
14614;DHT22;7393;51.446;6.800;2023-06-19T05:19:06;22.30;1.00
14614;DHT22;7393;51.446;6.800;2023-06-19T05:21:33;22.30;1.00
14614;DHT22;7393;51.446;6.800;2023-06-19T05:24:01;22.20;1.70
14614;DHT22;7393;51.446;6.800;2023-06-19T05:26:28;22.20;7.40
14614;DHT22;7393;51.446;6.800;2023-06-19T05:28:55;22.20;17.90
14614;DHT22;7393;51.446;6.800;2023-06-19T05:31:22;22.20;23.60
14614;DHT22;7393;51.446;6.800;2023-06-19T05:33:49;22.20;27.80
14614;DHT22;7393;51.446;6.800;2023-06-19T05:36:15;22.20;33.20
14614;DHT22;7393;51.446;6.800;2023-06-19T05:38:42;22.20;67.00
14614;DHT22;7393;51.446;6.800;2023-06-19T05:41:11;22.20;53.20
14614;DHT22;7393;51.446;6.800;2023-06-19T05:43:38;22.30;68.20
14614;DHT22;7393;51.446;6.800;2023-06-19T05:46:05;22.30;21.80
14614;DHT22;7393;51.446;6.800;2023-06-19T05:48:32;22.30;1.00
14614;DHT22;7393;51.446;6.800;2023-06-19T05:50:59;22.30;1.00
14614;DHT22;7393;51.446;6.800;2023-06-19T05:53:26;22.30;1.00
14614;DHT22;7393;51.446;6.800;2023-06-19T05:55:52;22.30;1.00
14614;DHT22;7393;51.446;6.800;2023-06-19T05:58:20;22.30;1.00
14614;DHT22;7393;51.446;6.800;2023-06-19T06:00:49;22.20;1.00
14614;DHT22;7393;51.446;6.800;2023-06-19T06:03:16;22.20;1.00
14614;DHT22;7393;51.446;6.800;2023-06-19T06:05:43;22.20;1.00
14614;DHT22;7393;51.446;6.800;2023-06-19T06:08:14;22.20;1.00
14614;DHT22;7393;51.446;6.800;2023-06-19T06:10:41;22.20;1.00
14614;DHT22;7393;51.446;6.800;2023-06-19T06:13:07;22.20;1.00
14614;DHT22;7393;51.446;6.800;2023-06-19T06:15:36;22.20;1.00
14614;DHT22;7393;51.446;6.800;2023-06-19T06:18:02;22.20;1.00
14614;DHT22;7393;51.446;6.800;2023-06-19T06:20:29;22.20;1.00
14614;DHT22;7393;51.446;6.800;2023-06-19T06:22:56;22.20;1.00
14614;DHT22;7393;51.446;6.800;2023-06-19T06:25:23;22.30;1.00
14614;DHT22;7393;51.446;6.800;2023-06-19T06:27:49;22.30;1.00
14614;DHT22;7393;51.446;6.800;2023-06-19T06:30:17;22.20;1.00
14614;DHT22;7393;51.446;6.800;2023-06-19T06:32:45;22.20;1.00
14614;DHT22;7393;51.446;6.800;2023-06-19T06:35:12;22.30;1.00
14614;DHT22;7393;51.446;6.800;2023-06-19T06:37:38;22.30;1.00
14614;DHT22;7393;51.446;6.800;2023-06-19T06:40:07;22.30;1.00
14614;DHT22;7393;51.446;6.800;2023-06-19T06:42:36;22.30;1.00
14614;DHT22;7393;51.446;6.800;2023-06-19T06:45:04;22.40;1.00
14614;DHT22;7393;51.446;6.800;2023-06-19T06:47:31;22.40;1.00
14614;DHT22;7393;51.446;6.800;2023-06-19T06:49:59;22.40;1.00
14614;DHT22;7393;51.446;6.800;2023-06-19T06:52:26;22.40;1.00
14614;DHT22;7393;51.446;6.800;2023-06-19T06:54:53;22.40;1.00
14614;DHT22;7393;51.446;6.800;2023-06-19T06:57:20;22.30;1.00
14614;DHT22;7393;51.446;6.800;2023-06-19T06:59:47;22.30;1.00
14614;DHT22;7393;51.446;6.800;2023-06-19T07:02:13;22.20;1.00
14614;DHT22;7393;51.446;6.800;2023-06-19T07:04:40;22.20;1.00
14614;DHT22;7393;51.446;6.800;2023-06-19T07:07:08;22.30;1.00
14614;DHT22;7393;51.446;6.800;2023-06-19T07:09:35;22.30;1.00
14614;DHT22;7393;51.446;6.800;2023-06-19T07:12:02;22.30;1.00
14614;DHT22;7393;51.446;6.800;2023-06-19T07:14:30;22.20;1.00
14614;DHT22;7393;51.446;6.800;2023-06-19T07:16:57;22.10;4.70
14614;DHT22;7393;51.446;6.800;2023-06-19T07:19:24;22.10;16.50
14614;DHT22;7393;51.446;6.800;2023-06-19T07:21:51;22.10;27.40
14614;DHT22;7393;51.446;6.800;2023-06-19T07:24:19;22.10;45.10
14614;DHT22;7393;51.446;6.800;2023-06-19T07:26:46;22.10;99.90
14614;DHT22;7393;51.446;6.800;2023-06-19T07:29:13;22.10;99.90
14614;DHT22;7393;51.446;6.800;2023-06-19T07:31:40;22.10;99.90
14614;DHT22;7393;51.446;6.800;2023-06-19T07:34:08;22.10;99.90
14614;DHT22;7393;51.446;6.800;2023-06-19T07:36:34;22.10;99.90
14614;DHT22;7393;51.446;6.800;2023-06-19T07:39:02;22.10;99.90
14614;DHT22;7393;51.446;6.800;2023-06-19T07:41:30;22.10;99.90
14614;DHT22;7393;51.446;6.800;2023-06-19T07:43:56;22.10;99.90
14614;DHT22;7393;51.446;6.800;2023-06-19T07:46:23;22.20;99.90
14614;DHT22;7393;51.446;6.800;2023-06-19T07:48:50;22.20;99.90
14614;DHT22;7393;51.446;6.800;2023-06-19T07:51:17;22.30;99.90
14614;DHT22;7393;51.446;6.800;2023-06-19T07:53:44;22.40;99.90
14614;DHT22;7393;51.446;6.800;2023-06-19T07:56:10;22.40;99.90
14614;DHT22;7393;51.446;6.800;2023-06-19T07:58:39;22.40;92.80
14614;DHT22;7393;51.446;6.800;2023-06-19T08:01:05;22.40;99.60
14614;DHT22;7393;51.446;6.800;2023-06-19T08:03:32;22.40;83.40
14614;DHT22;7393;51.446;6.800;2023-06-19T08:05:59;22.40;99.90
14614;DHT22;7393;51.446;6.800;2023-06-19T08:08:26;22.40;99.90
14614;DHT22;7393;51.446;6.800;2023-06-19T08:10:53;22.50;99.90
14614;DHT22;7393;51.446;6.800;2023-06-19T08:13:20;22.50;99.90
14614;DHT22;7393;51.446;6.800;2023-06-19T08:15:48;22.60;99.90
14614;DHT22;7393;51.446;6.800;2023-06-19T08:18:15;22.70;99.90
14614;DHT22;7393;51.446;6.800;2023-06-19T08:20:42;22.90;97.80
14614;DHT22;7393;51.446;6.800;2023-06-19T08:23:09;23.10;1.00
14614;DHT22;7393;51.446;6.800;2023-06-19T08:25:36;23.30;1.00
14614;DHT22;7393;51.446;6.800;2023-06-19T08:28:03;23.50;1.00
14614;DHT22;7393;51.446;6.800;2023-06-19T08:30:30;23.60;1.00
14614;DHT22;7393;51.446;6.800;2023-06-19T08:32:59;23.60;1.00
14614;DHT22;7393;51.446;6.800;2023-06-19T08:35:25;23.70;1.00
14614;DHT22;7393;51.446;6.800;2023-06-19T08:37:52;23.80;1.00
14614;DHT22;7393;51.446;6.800;2023-06-19T08:40:20;23.80;1.00
14614;DHT22;7393;51.446;6.800;2023-06-19T08:42:47;23.90;1.00
14614;DHT22;7393;51.446;6.800;2023-06-19T08:45:14;23.90;1.00
14614;DHT22;7393;51.446;6.800;2023-06-19T08:47:42;23.90;1.00
14614;DHT22;7393;51.446;6.800;2023-06-19T08:50:10;23.90;1.00
14614;DHT22;7393;51.446;6.800;2023-06-19T08:52:37;23.90;1.00
14614;DHT22;7393;51.446;6.800;2023-06-19T08:55:04;23.90;1.00
14614;DHT22;7393;51.446;6.800;2023-06-19T08:57:35;23.90;1.00
14614;DHT22;7393;51.446;6.800;2023-06-19T09:00:03;23.80;1.00
14614;DHT22;7393;51.446;6.800;2023-06-19T09:02:42;23.80;1.00
14614;DHT22;7393;51.446;6.800;2023-06-19T09:05:12;23.90;1.00
14614;DHT22;7393;51.446;6.800;2023-06-19T09:07:40;23.90;1.00
14614;DHT22;7393;51.446;6.800;2023-06-19T09:10:17;23.90;1.00
14614;DHT22;7393;51.446;6.800;2023-06-19T09:12:55;23.90;1.00
14614;DHT22;7393;51.446;6.800;2023-06-19T09:15:22;23.90;1.00
14614;DHT22;7393;51.446;6.800;2023-06-19T09:18:00;24.00;1.00
14614;DHT22;7393;51.446;6.800;2023-06-19T09:20:29;24.10;1.00
14614;DHT22;7393;51.446;6.800;2023-06-19T09:22:56;24.30;1.00
14614;DHT22;7393;51.446;6.800;2023-06-19T09:25:23;24.30;1.00
14614;DHT22;7393;51.446;6.800;2023-06-19T09:27:52;24.40;1.00
14614;DHT22;7393;51.446;6.800;2023-06-19T09:30:19;24.50;1.00
14614;DHT22;7393;51.446;6.800;2023-06-19T09:32:46;24.50;1.00
14614;DHT22;7393;51.446;6.800;2023-06-19T09:35:13;24.70;1.00
14614;DHT22;7393;51.446;6.800;2023-06-19T09:37:41;24.90;1.00
14614;DHT22;7393;51.446;6.800;2023-06-19T09:40:08;25.00;1.00
14614;DHT22;7393;51.446;6.800;2023-06-19T09:42:38;25.20;1.00
14614;DHT22;7393;51.446;6.800;2023-06-19T09:45:06;25.40;1.00
14614;DHT22;7393;51.446;6.800;2023-06-19T09:47:36;25.70;1.00
14614;DHT22;7393;51.446;6.800;2023-06-19T09:50:04;25.80;1.00
14614;DHT22;7393;51.446;6.800;2023-06-19T09:52:32;25.90;1.00
14614;DHT22;7393;51.446;6.800;2023-06-19T09:55:02;26.10;1.00
14614;DHT22;7393;51.446;6.800;2023-06-19T09:57:30;26.10;1.00
14614;DHT22;7393;51.446;6.800;2023-06-19T09:59:58;26.10;1.00
14614;DHT22;7393;51.446;6.800;2023-06-19T10:02:31;26.10;1.00
14614;DHT22;7393;51.446;6.800;2023-06-19T10:04:58;26.20;1.00
14614;DHT22;7393;51.446;6.800;2023-06-19T10:07:32;26.20;1.00
14614;DHT22;7393;51.446;6.800;2023-06-19T10:10:02;26.30;1.00
14614;DHT22;7393;51.446;6.800;2023-06-19T10:12:38;26.40;1.00
14614;DHT22;7393;51.446;6.800;2023-06-19T10:15:13;26.50;1.00
14614;DHT22;7393;51.446;6.800;2023-06-19T10:17:46;26.50;1.00
14614;DHT22;7393;51.446;6.800;2023-06-19T10:20:25;26.60;1.00
14614;DHT22;7393;51.446;6.800;2023-06-19T10:22:57;26.70;1.00
14614;DHT22;7393;51.446;6.800;2023-06-19T10:25:28;26.80;1.00
14614;DHT22;7393;51.446;6.800;2023-06-19T10:27:57;26.80;1.00
14614;DHT22;7393;51.446;6.800;2023-06-19T10:30:24;26.90;1.00
14614;DHT22;7393;51.446;6.800;2023-06-19T10:32:50;27.00;1.00
14614;DHT22;7393;51.446;6.800;2023-06-19T10:35:18;27.20;1.00
14614;DHT22;7393;51.446;6.800;2023-06-19T10:37:47;27.40;1.00
14614;DHT22;7393;51.446;6.800;2023-06-19T10:40:14;27.60;1.00
14614;DHT22;7393;51.446;6.800;2023-06-19T10:42:43;27.80;1.00
14614;DHT22;7393;51.446;6.800;2023-06-19T10:45:11;27.90;1.00
14614;DHT22;7393;51.446;6.800;2023-06-19T10:47:41;28.00;1.00
14614;DHT22;7393;51.446;6.800;2023-06-19T10:50:12;28.20;1.00
14614;DHT22;7393;51.446;6.800;2023-06-19T10:52:40;28.50;1.00
14614;DHT22;7393;51.446;6.800;2023-06-19T10:55:09;28.60;1.00
14614;DHT22;7393;51.446;6.800;2023-06-19T10:57:36;28.80;1.00
14614;DHT22;7393;51.446;6.800;2023-06-19T11:00:06;28.90;1.00
14614;DHT22;7393;51.446;6.800;2023-06-19T11:02:38;28.90;1.00
14614;DHT22;7393;51.446;6.800;2023-06-19T11:05:09;29.00;1.00
14614;DHT22;7393;51.446;6.800;2023-06-19T11:07:36;29.10;1.00
14614;DHT22;7393;51.446;6.800;2023-06-19T11:10:04;29.20;1.00
14614;DHT22;7393;51.446;6.800;2023-06-19T11:12:32;29.10;1.00
14614;DHT22;7393;51.446;6.800;2023-06-19T11:14:59;29.20;1.00
14614;DHT22;7393;51.446;6.800;2023-06-19T11:17:30;29.30;1.00
14614;DHT22;7393;51.446;6.800;2023-06-19T11:19:57;29.30;1.00
14614;DHT22;7393;51.446;6.800;2023-06-19T11:22:38;29.50;1.00
14614;DHT22;7393;51.446;6.800;2023-06-19T11:25:07;29.60;1.00
14614;DHT22;7393;51.446;6.800;2023-06-19T11:27:34;29.60;1.00
14614;DHT22;7393;51.446;6.800;2023-06-19T11:30:04;29.50;1.00
14614;DHT22;7393;51.446;6.800;2023-06-19T11:32:36;29.50;1.00
14614;DHT22;7393;51.446;6.800;2023-06-19T11:35:08;29.60;1.00
14614;DHT22;7393;51.446;6.800;2023-06-19T11:37:35;29.70;1.00
14614;DHT22;7393;51.446;6.800;2023-06-19T11:40:02;29.70;1.00
14614;DHT22;7393;51.446;6.800;2023-06-19T11:42:45;29.80;1.00
14614;DHT22;7393;51.446;6.800;2023-06-19T11:45:12;29.90;1.00
14614;DHT22;7393;51.446;6.800;2023-06-19T11:47:40;30.10;1.00
14614;DHT22;7393;51.446;6.800;2023-06-19T11:50:10;30.10;1.00
14614;DHT22;7393;51.446;6.800;2023-06-19T11:52:36;30.10;1.00
14614;DHT22;7393;51.446;6.800;2023-06-19T11:55:04;30.00;1.00
14614;DHT22;7393;51.446;6.800;2023-06-19T11:57:31;30.00;1.00
14614;DHT22;7393;51.446;6.800;2023-06-19T11:59:58;30.20;1.00
14614;DHT22;7393;51.446;6.800;2023-06-19T12:02:25;30.30;1.00
14614;DHT22;7393;51.446;6.800;2023-06-19T12:04:53;30.30;1.00
14614;DHT22;7393;51.446;6.800;2023-06-19T12:07:20;30.40;1.00
14614;DHT22;7393;51.446;6.800;2023-06-19T12:09:47;30.40;1.00
14614;DHT22;7393;51.446;6.800;2023-06-19T12:12:14;30.30;1.00
14614;DHT22;7393;51.446;6.800;2023-06-19T12:14:41;30.30;1.00
14614;DHT22;7393;51.446;6.800;2023-06-19T12:17:08;30.50;1.00
14614;DHT22;7393;51.446;6.800;2023-06-19T12:19:35;30.60;1.00
14614;DHT22;7393;51.446;6.800;2023-06-19T12:22:04;30.80;1.00
14614;DHT22;7393;51.446;6.800;2023-06-19T12:24:31;30.90;1.00
14614;DHT22;7393;51.446;6.800;2023-06-19T12:26:57;31.10;1.00
14614;DHT22;7393;51.446;6.800;2023-06-19T12:29:24;31.20;1.00
14614;DHT22;7393;51.446;6.800;2023-06-19T12:31:51;31.20;1.00
14614;DHT22;7393;51.446;6.800;2023-06-19T12:34:18;31.20;1.00
14614;DHT22;7393;51.446;6.800;2023-06-19T12:36:46;31.30;1.00
14614;DHT22;7393;51.446;6.800;2023-06-19T12:39:14;31.30;1.00
14614;DHT22;7393;51.446;6.800;2023-06-19T12:41:42;31.30;1.00
14614;DHT22;7393;51.446;6.800;2023-06-19T12:44:09;31.30;1.00
14614;DHT22;7393;51.446;6.800;2023-06-19T12:46:36;31.20;1.00
14614;DHT22;7393;51.446;6.800;2023-06-19T12:49:03;31.30;1.00
14614;DHT22;7393;51.446;6.800;2023-06-19T12:51:30;31.20;1.00
14614;DHT22;7393;51.446;6.800;2023-06-19T12:53:57;31.10;1.00
14614;DHT22;7393;51.446;6.800;2023-06-19T12:56:25;31.10;1.00
14614;DHT22;7393;51.446;6.800;2023-06-19T12:58:52;31.10;1.00
14614;DHT22;7393;51.446;6.800;2023-06-19T13:01:19;31.10;1.00
14614;DHT22;7393;51.446;6.800;2023-06-19T13:03:46;31.20;1.00
14614;DHT22;7393;51.446;6.800;2023-06-19T13:06:12;31.30;1.00
14614;DHT22;7393;51.446;6.800;2023-06-19T13:08:39;31.50;1.00
14614;DHT22;7393;51.446;6.800;2023-06-19T13:11:06;31.60;1.00
14614;DHT22;7393;51.446;6.800;2023-06-19T13:13:34;31.50;1.00
14614;DHT22;7393;51.446;6.800;2023-06-19T13:16:01;31.50;1.00
14614;DHT22;7393;51.446;6.800;2023-06-19T13:18:28;31.60;1.00
14614;DHT22;7393;51.446;6.800;2023-06-19T13:20:55;31.70;1.00
14614;DHT22;7393;51.446;6.800;2023-06-19T13:23:21;31.90;1.00
14614;DHT22;7393;51.446;6.800;2023-06-19T13:25:48;31.80;1.00
14614;DHT22;7393;51.446;6.800;2023-06-19T13:28:15;31.80;1.00
14614;DHT22;7393;51.446;6.800;2023-06-19T13:30:43;31.80;1.00
14614;DHT22;7393;51.446;6.800;2023-06-19T13:33:10;31.90;1.00
14614;DHT22;7393;51.446;6.800;2023-06-19T13:35:37;32.00;1.00
14614;DHT22;7393;51.446;6.800;2023-06-19T13:38:04;32.00;1.00
14614;DHT22;7393;51.446;6.800;2023-06-19T13:40:31;31.90;1.00
14614;DHT22;7393;51.446;6.800;2023-06-19T13:42:58;31.80;1.00
14614;DHT22;7393;51.446;6.800;2023-06-19T13:45:26;31.90;1.00
14614;DHT22;7393;51.446;6.800;2023-06-19T13:47:54;32.10;1.00
14614;DHT22;7393;51.446;6.800;2023-06-19T13:50:21;32.20;1.00
14614;DHT22;7393;51.446;6.800;2023-06-19T13:52:49;32.20;1.00
14614;DHT22;7393;51.446;6.800;2023-06-19T13:55:16;32.10;1.00
14614;DHT22;7393;51.446;6.800;2023-06-19T13:57:44;32.20;1.00
14614;DHT22;7393;51.446;6.800;2023-06-19T14:00:12;32.30;1.00
14614;DHT22;7393;51.446;6.800;2023-06-19T14:02:39;32.40;1.00
14614;DHT22;7393;51.446;6.800;2023-06-19T14:05:09;32.50;1.00
14614;DHT22;7393;51.446;6.800;2023-06-19T14:07:36;32.60;1.00
14614;DHT22;7393;51.446;6.800;2023-06-19T14:10:04;32.70;1.00
14614;DHT22;7393;51.446;6.800;2023-06-19T14:12:31;32.80;1.00
14614;DHT22;7393;51.446;6.800;2023-06-19T14:14:58;32.80;1.00
14614;DHT22;7393;51.446;6.800;2023-06-19T14:17:25;32.80;1.00
14614;DHT22;7393;51.446;6.800;2023-06-19T14:19:52;32.80;1.00
14614;DHT22;7393;51.446;6.800;2023-06-19T14:22:22;32.80;1.00
14614;DHT22;7393;51.446;6.800;2023-06-19T14:24:49;32.90;1.00
14614;DHT22;7393;51.446;6.800;2023-06-19T14:27:15;32.90;1.00
14614;DHT22;7393;51.446;6.800;2023-06-19T14:29:42;32.90;1.00
14614;DHT22;7393;51.446;6.800;2023-06-19T14:32:09;32.90;1.00
14614;DHT22;7393;51.446;6.800;2023-06-19T14:34:36;32.70;1.00
14614;DHT22;7393;51.446;6.800;2023-06-19T14:37:03;32.60;1.00
14614;DHT22;7393;51.446;6.800;2023-06-19T14:39:31;32.60;1.00
14614;DHT22;7393;51.446;6.800;2023-06-19T14:41:58;32.50;1.00
14614;DHT22;7393;51.446;6.800;2023-06-19T14:44:25;32.50;1.00
14614;DHT22;7393;51.446;6.800;2023-06-19T14:46:52;32.30;1.00
14614;DHT22;7393;51.446;6.800;2023-06-19T14:49:20;32.20;1.00
14614;DHT22;7393;51.446;6.800;2023-06-19T14:51:47;32.10;1.00
14614;DHT22;7393;51.446;6.800;2023-06-19T14:54:13;32.10;1.00
14614;DHT22;7393;51.446;6.800;2023-06-19T14:56:44;32.00;1.00
14614;DHT22;7393;51.446;6.800;2023-06-19T14:59:13;31.90;1.00
14614;DHT22;7393;51.446;6.800;2023-06-19T15:01:40;31.80;1.00
14614;DHT22;7393;51.446;6.800;2023-06-19T15:04:07;31.80;1.00
14614;DHT22;7393;51.446;6.800;2023-06-19T15:06:34;31.70;1.00
14614;DHT22;7393;51.446;6.800;2023-06-19T15:09:00;31.50;1.00
14614;DHT22;7393;51.446;6.800;2023-06-19T15:11:28;31.20;1.00
14614;DHT22;7393;51.446;6.800;2023-06-19T15:13:56;30.80;1.00
14614;DHT22;7393;51.446;6.800;2023-06-19T15:16:23;30.80;1.00
14614;DHT22;7393;51.446;6.800;2023-06-19T15:18:51;30.80;1.00
14614;DHT22;7393;51.446;6.800;2023-06-19T15:21:18;30.70;1.00
14614;DHT22;7393;51.446;6.800;2023-06-19T15:23:44;30.60;1.00
14614;DHT22;7393;51.446;6.800;2023-06-19T15:26:11;30.60;1.00
14614;DHT22;7393;51.446;6.800;2023-06-19T15:28:38;30.50;1.00
14614;DHT22;7393;51.446;6.800;2023-06-19T15:31:08;30.30;1.00
14614;DHT22;7393;51.446;6.800;2023-06-19T15:33:34;30.30;1.00
14614;DHT22;7393;51.446;6.800;2023-06-19T15:36:01;30.20;1.00
14614;DHT22;7393;51.446;6.800;2023-06-19T15:38:28;30.20;1.00
14614;DHT22;7393;51.446;6.800;2023-06-19T15:40:55;30.20;1.00
14614;DHT22;7393;51.446;6.800;2023-06-19T15:43:22;30.10;1.00
14614;DHT22;7393;51.446;6.800;2023-06-19T15:45:54;30.10;1.00
14614;DHT22;7393;51.446;6.800;2023-06-19T15:48:22;30.00;1.00
14614;DHT22;7393;51.446;6.800;2023-06-19T15:50:49;30.10;1.00
14614;DHT22;7393;51.446;6.800;2023-06-19T15:53:15;30.00;1.00
14614;DHT22;7393;51.446;6.800;2023-06-19T15:55:42;29.90;1.00
14614;DHT22;7393;51.446;6.800;2023-06-19T15:58:09;29.90;1.00
14614;DHT22;7393;51.446;6.800;2023-06-19T16:00:36;29.80;1.00